Latest Weather Observations for Derby

IDW60801

Issued at 6:05 pm WST Tuesday 21 October 2014 (issued every 30 minutes, with the page automatically refreshed every 10 minutes)

About weather observations | Map of weather stations | Latest weather observations for WA | Other Formats
Station Details ID: 003032 Name: DERBY AERO Lat: -17.37 Lon: 123.66 Height: 6.2 m
Data from the previous 72 hours. | See also: Recent months at Derby
Date/Time
WST
Temp
°C
App
Temp
°C
Dew
Point
Rel
Hum
%
Delta-T
°C
Wind Press
QNH
hPa
Press
MSL
hPa
Rain
since 9 am
mm
Dir
 
Spd
km/h
Gust
km/h
Spd
kts
Gust
kts
21/06:00pm 31.6 31.5 20.8 52 7.2 NW 22 28 12 15 1009.6 1009.6 -
21/05:30pm 32.6 31.2 18.8 44 9.0 NNW 24 30 13 16 1009.2 1009.2 -
21/05:00pm 33.9 31.8 16.3 35 11.1 NNW 22 30 12 16 1009.0 1009.0 -
21/04:30pm 34.3 31.9 18.3 38 10.4 NNW 28 35 15 19 1008.8 1008.8 -
21/04:00pm 36.4 32.9 16.5 30 12.7 NNW 30 33 16 18 1008.6 1008.6 -
21/03:30pm 37.9 34.0 13.2 23 15.1 NNW 26 32 14 17 1008.7 1008.7 -
21/03:00pm 38.6 35.2 13.8 23 15.4 NNW 24 30 13 16 1008.8 1008.8 -
21/02:30pm 37.8 33.9 15.6 27 14.1 NW 30 43 16 23 1008.8 1008.8 -
21/02:00pm 38.2 35.6 15.9 26 14.2 NNW 24 32 13 17 1009.4 1009.4 -
21/01:30pm 41.9 38.1 4.0 10 20.7 SSE 13 24 7 13 1009.6 1009.6 -
21/01:00pm 41.2 38.6 6.1 12 19.7 S 9 22 5 12 1010.2 1010.2 -
21/12:30pm 40.3 34.3 5.4 12 19.3 S 26 39 14 21 1010.9 1010.9 -
21/12:00pm 39.4 36.1 8.0 15 18.0 S 15 28 8 15 1011.7 1011.7 -
21/11:30am 37.2 35.9 12.6 23 14.9 S 11 26 6 14 1012.7 1012.7 -
21/11:00am - - - - - SSW 13 24 7 13 1013.3 1013.3 -
21/10:30am - - - - - SSW 9 19 5 10 1013.8 1013.8 -
21/10:00am - - - - - SSE 11 19 6 10 1014.5 1014.5 -
21/09:30am - - - - - - - - - - 1014.9 1014.9 -
21/09:00am - - - - - - - - - - 1015.0 1015.0 -
21/08:30am - - - - - - - - - - 1015.4 1015.4 -
21/08:00am - - - - - - - - - - 1015.0 1015.0 -
21/07:30am - - - - - - - - - - 1015.1 1015.1 -
21/07:00am - - - - - - - - - - 1015.0 1015.0 -
21/06:30am - - - - - - - - - - 1014.9 1014.9 -
21/06:00am - - - - - - - - - - 1014.5 1014.5 -
21/05:30am - - - - - - - - - - 1014.1 1014.1 -
21/05:00am - - - - - - - - - - 1013.6 1013.6 -
21/04:30am - - - - - - - - - - 1013.3 1013.3 -
21/04:00am - - - - - - - - - - 1011.9 1011.9 -
21/03:30am - - - - - - - - - - 1011.5 1011.5 -
21/03:00am - - - - - - - - - - 1011.2 1011.2 -
21/02:30am - - - - - - - - - - 1011.0 1011.0 -
21/02:00am - - - - - - - - - - 1010.9 1010.9 -
21/01:30am - - - - - - - - - - 1011.0 1011.0 -
21/01:00am - - - - - - - - - - 1011.0 1011.0 -
21/12:30am - - - - - - - - - - 1011.2 1011.2 -
21/12:00am - - - - - - - - - - 1011.5 1011.5 -
 
Date/Time
WST
Temp
°C
App
Temp
°C
Dew
Point
Rel
Hum
%
Delta-T
°C
Wind Press
QNH
hPa
Press
MSL
hPa
Rain
since 9 am
mm
Dir
 
Spd
km/h
Gust
km/h
Spd
kts
Gust
kts
20/11:30pm - - - - - - - - - - 1012.0 1012.0 -
20/11:00pm - - - - - - - - - - 1012.2 1012.2 -
20/10:30pm - - - - - - - - - - 1012.6 1012.6 -
20/10:00pm - - - - - - - - - - 1012.9 1012.9 -
20/09:30pm - - - - - - - - - - 1013.0 1013.0 -
20/09:00pm - - - - - - - - - - 1013.1 1013.1 -
20/08:30pm - - - - - - - - - - 1012.7 1012.7 -
20/08:00pm - - - - - - - - - - 1012.4 1012.4 -
20/07:30pm - - - - - - - - - - 1012.1 1012.1 -
20/07:00pm - - - - - - - - - - 1011.5 1011.5 -
20/06:30pm - - - - - - - - - - 1011.0 1011.0 -
20/06:00pm - - - - - - - - - - 1010.6 1010.6 -
20/05:30pm - - - - - - - - - - 1010.2 1010.2 -
20/05:00pm - - - - - - - - - - 1009.9 1009.9 -
20/04:30pm - - - - - - - - - - 1009.5 1009.5 -
20/04:00pm - - - - - - - - - - 1009.2 1009.2 -
20/03:30pm - - - - - - - - - - 1009.3 1009.3 -
20/03:00pm - - - - - - - - - - 1009.5 1009.5 -
20/02:30pm - - - - - - - - - - 1009.9 1009.9 -
20/02:00pm - - - - - - - - - - 1010.3 1010.3 -
20/01:30pm - - - - - - - - - - 1010.9 1010.9 -
20/01:00pm - - - - - - - - - - 1011.4 1011.4 -
20/12:30pm - - - - - - - - - - 1012.1 1012.1 -
20/12:00pm - - - - - - - - - - 1012.7 1012.7 -
20/11:30am - - - - - - - - - - 1013.3 1013.3 -
20/11:00am - - - - - - - - - - 1013.7 1013.7 -
20/10:30am 33.9 32.5 14.4 31 12.0 WSW 15 26 8 14 1014.2 1014.2 0.0
20/10:00am 33.4 32.9 15.8 34 11.0 WNW 13 22 7 12 1014.7 1014.7 0.0
20/09:30am 32.4 31.9 15.0 35 10.7 W 11 19 6 10 1015.3 1015.3 0.0
20/09:00am 30.7 31.9 19.1 50 7.5 WNW 11 19 6 10 1015.5 1015.5 0.0
20/08:30am 29.5 31.0 18.9 53 6.9 WNW 9 17 5 9 1015.6 1015.6 0.0
20/08:00am 28.4 30.4 19.1 57 6.0 W 7 11 4 6 1015.5 1015.5 0.0
20/07:30am 28.1 29.9 18.8 57 6.0 W 7 11 4 6 1015.4 1015.4 0.0
20/07:00am 27.1 29.0 19.7 64 4.8 WNW 9 11 5 6 1015.1 1015.1 0.0
20/06:30am 25.6 27.8 18.3 64 4.6 WNW 4 6 2 3 1014.7 1014.7 0.0
20/06:00am 23.7 26.4 17.7 69 3.7 CALM 0 0 0 0 1014.4 1014.4 0.0
20/05:30am 22.7 23.5 17.2 71 3.4 NE 9 11 5 6 1014.2 1014.2 0.0
20/05:00am 22.6 23.7 17.1 71 3.4 NNE 7 11 4 6 1013.9 1013.9 0.0
20/04:30am 22.8 23.9 17.0 70 3.6 NE 7 13 4 7 1013.3 1013.3 0.0
20/04:00am 22.2 24.2 16.9 72 3.2 NNE 2 6 1 3 1012.5 1012.5 0.0
20/03:30am 23.3 24.5 17.3 69 3.7 NNE 7 9 4 5 1012.2 1012.2 0.0
20/03:00am 22.8 24.1 17.5 72 3.3 NNE 7 9 4 5 1011.9 1011.9 0.0
20/02:30am 22.6 24.7 17.3 72 3.3 SSE 2 6 1 3 1011.7 1011.7 0.0
20/02:00am 24.3 25.9 17.8 67 4.1 S 6 7 3 4 1011.5 1011.5 0.0
20/01:30am 24.3 25.3 17.8 67 4.1 SSW 9 11 5 6 1011.5 1011.5 0.0
20/01:00am 25.0 26.7 18.0 65 4.4 SSE 6 7 3 4 1011.8 1011.8 0.0
20/12:30am 25.2 26.8 17.9 64 4.6 SSE 6 7 3 4 1011.8 1011.8 0.0
20/12:00am 25.9 26.8 18.3 63 4.8 SSW 11 15 6 8 1011.9 1011.9 0.0
 
Date/Time
WST
Temp
°C
App
Temp
°C
Dew
Point
Rel
Hum
%
Delta-T
°C
Wind Press
QNH
hPa
Press
MSL
hPa
Rain
since 9 am
mm
Dir
 
Spd
km/h
Gust
km/h
Spd
kts
Gust
kts
19/11:30pm 26.1 26.1 18.0 61 5.1 SW 15 20 8 11 1012.0 1012.0 0.0
19/11:00pm 26.7 26.5 17.5 57 5.8 SW 15 19 8 10 1012.4 1012.4 0.0
19/10:30pm 27.5 26.8 18.2 57 5.9 SSW 19 26 10 14 1012.4 1012.4 0.0
19/10:00pm 27.9 27.9 18.9 58 5.8 SSW 17 22 9 12 1012.6 1012.6 0.0
19/09:30pm 28.2 27.7 17.7 53 6.6 S 17 19 9 10 1012.4 1012.4 0.0
19/09:00pm 29.2 28.5 17.4 49 7.5 SW 17 20 9 11 1012.4 1012.4 0.0
19/08:30pm 29.5 29.2 17.3 47 7.7 SW 15 19 8 10 1012.1 1012.1 0.0
19/08:00pm 30.2 29.8 18.9 50 7.3 WNW 19 24 10 13 1011.8 1011.8 0.0
19/07:30pm 29.8 30.5 21.5 61 5.6 NW 20 24 11 13 1011.4 1011.4 0.0
19/07:00pm 30.0 30.1 20.0 55 6.6 NW 19 24 10 13 1011.2 1011.2 0.0
19/06:30pm 30.0 30.0 21.7 61 5.6 NW 24 32 13 17 1010.8 1010.8 0.0
19/06:00pm 30.6 31.2 21.4 58 6.2 NW 20 26 11 14 1010.4 1010.4 0.0
19/05:30pm 32.8 31.7 18.6 43 9.2 NW 22 24 12 13 1010.0 1010.0 0.0
19/05:00pm 34.6 33.7 18.2 37 10.7 NW 20 33 11 18 1009.8 1009.8 0.0
19/04:30pm 36.3 32.7 11.9 23 14.6 NW 22 28 12 15 1009.5 1009.5 0.0
19/04:00pm 36.4 32.8 11.9 23 14.7 WNW 22 28 12 15 1009.4 1009.4 0.0
19/03:30pm 36.6 32.9 12.7 23 14.5 WNW 24 28 13 15 1009.4 1009.4 0.0
19/03:00pm 37.6 35.0 14.8 25 14.3 NW 22 28 12 15 1009.5 1009.5 0.0
19/02:30pm 37.1 34.1 12.5 23 14.9 WNW 20 28 11 15 1009.6 1009.6 0.0
19/02:00pm 36.9 33.7 14.2 25 14.1 WNW 24 30 13 16 1009.9 1009.9 0.0
19/01:30pm 37.6 34.4 14.2 25 14.5 WNW 24 32 13 17 1010.2 1010.2 0.0
19/01:00pm 37.3 35.2 14.6 26 14.2 NW 19 28 10 15 1010.8 1010.8 0.0
19/12:30pm 36.6 36.2 15.1 27 13.5 WSW 11 22 6 12 1011.4 1011.4 0.0
19/12:00pm 35.6 36.0 17.3 33 11.8 NNW 11 20 6 11 1012.0 1012.0 0.0
19/11:30am 34.9 35.1 16.7 34 11.6 NW 11 20 6 11 1012.7 1012.7 0.0
19/11:00am 34.1 34.7 16.9 36 11.0 W 9 17 5 9 1013.1 1013.1 0.0
19/10:30am 33.1 33.0 16.0 35 10.7 SSW 11 20 6 11 1013.5 1013.5 0.0
19/10:00am 32.3 33.0 17.0 40 9.7 S 9 15 5 8 1013.9 1013.9 0.0
19/09:30am 31.4 32.6 17.3 43 9.0 SW 7 15 4 8 1014.3 1014.3 0.0
19/09:00am 30.3 31.1 18.1 48 7.8 SW 11 17 6 9 1014.6 1014.6 0.0
19/08:30am 30.2 30.9 18.0 48 7.8 WSW 11 17 6 9 1014.6 1014.6 0.0
19/08:00am 29.0 31.1 19.0 54 6.5 SW 6 11 3 6 1014.8 1014.8 0.0
19/07:30am 28.0 30.4 20.0 61 5.2 W 7 11 4 6 1014.5 1014.5 0.0
19/07:00am 27.1 29.4 19.9 64 4.7 N 7 11 4 6 1014.3 1014.3 0.0
19/06:30am 25.8 28.1 19.4 67 4.1 NE 6 7 3 4 1013.8 1013.8 0.0
19/06:00am 23.3 25.8 18.2 73 3.2 ENE 2 7 1 4 1013.5 1013.5 0.0
19/05:30am 21.8 24.2 17.0 74 2.9 CALM 0 0 0 0 1013.1 1013.1 0.0
19/05:00am 21.4 22.7 17.2 77 2.6 E 6 7 3 4 1012.6 1012.6 0.0
19/04:30am 22.1 23.4 17.5 75 2.8 ENE 7 11 4 6 1012.3 1012.3 0.0
19/04:00am 22.2 23.3 17.1 73 3.1 E 7 11 4 6 1012.1 1012.1 0.0
19/03:30am 23.1 24.2 18.0 73 3.2 NE 9 11 5 6 1011.9 1011.9 0.0
19/03:00am 22.8 24.3 17.5 72 3.3 WNW 6 7 3 4 1011.6 1011.6 0.0
19/02:30am 22.9 25.3 17.1 70 3.6 CALM 0 0 0 0 1011.3 1011.3 0.0
19/02:00am 23.6 25.8 16.4 64 4.4 CALM 0 0 0 0 1011.2 1011.2 0.0
19/01:30am 24.6 25.1 16.6 61 4.9 S 9 9 5 5 1011.1 1011.1 0.0
19/01:00am 24.9 25.6 17.1 62 4.8 S 9 9 5 5 1011.1 1011.1 0.0
19/12:30am 25.1 25.6 16.5 59 5.3 SSE 9 9 5 5 1011.3 1011.3 0.0
19/12:00am 25.4 25.8 16.3 57 5.6 S 9 11 5 6 1011.6 1011.6 0.0
 
Date/Time
WST
Temp
°C
App
Temp
°C
Dew
Point
Rel
Hum
%
Delta-T
°C
Wind Press
QNH
hPa
Press
MSL
hPa
Rain
since 9 am
mm
Dir
 
Spd
km/h
Gust
km/h
Spd
kts
Gust
kts
18/11:30pm 25.8 25.7 14.9 51 6.5 S 9 13 5 7 1011.7 1011.7 0.0
18/11:00pm 26.6 27.0 15.3 50 6.9 SSW 7 9 4 5 1011.7 1011.7 0.0
18/10:30pm 26.5 25.5 15.5 50 6.7 WSW 15 17 8 9 1011.7 1011.7 0.0
18/10:00pm 27.6 28.5 16.6 51 6.8 WSW 7 9 4 5 1011.9 1011.9 0.0
18/09:30pm 28.4 28.7 17.0 50 7.1 WSW 11 15 6 8 1011.8 1011.8 0.0
18/09:00pm 29.5 29.1 18.0 50 7.3 W 17 20 9 11 1011.8 1011.8 0.0
18/08:30pm 29.7 29.1 18.5 51 7.2 WNW 19 22 10 12 1011.6 1011.6 0.0
18/08:00pm 29.7 30.4 20.5 57 6.1 NW 17 22 9 12 1011.3 1011.3 0.0
18/07:30pm 29.8 29.9 20.4 57 6.2 NW 20 24 11 13 1011.2 1011.2 0.0
18/07:00pm 30.3 31.1 19.0 50 7.3 NNW 13 19 7 10 1010.8 1010.8 0.0
18/06:30pm 30.5 30.9 18.2 47 7.9 NNW 13 17 7 9 1010.4 1010.4 0.0

Other Formats:

Comma delimited format used in spreadsheet applications
http://www.bom.gov.au/fwo/IDW60801/IDW60801.95205.axf

JavaScript Object Notation format (JSON) in row-major order
http://www.bom.gov.au/fwo/IDW60801/IDW60801.95205.json